createdAt,value
2022-08-07T00:05:09.816Z,22.08
2022-08-07T00:10:48.065Z,22.03
2022-08-07T00:16:27.890Z,21.92
2022-08-07T00:22:02.101Z,21.90
2022-08-07T00:27:35.777Z,21.87
2022-08-07T00:33:22.434Z,21.73
2022-08-07T00:38:53.409Z,21.70
2022-08-07T00:44:23.149Z,21.71
2022-08-07T00:50:20.040Z,21.73
2022-08-07T00:56:02.736Z,21.40
2022-08-07T01:01:44.659Z,21.43
2022-08-07T01:07:14.485Z,21.41
2022-08-07T01:12:54.079Z,21.24
2022-08-07T01:18:29.198Z,21.17
2022-08-07T01:23:59.839Z,21.05
2022-08-07T01:29:31.484Z,21.09
2022-08-07T01:35:08.636Z,20.99
2022-08-07T01:40:41.785Z,21.00
2022-08-07T01:46:12.691Z,21.11
2022-08-07T01:52:02.327Z,21.13
2022-08-07T01:58:06.070Z,21.10
2022-08-07T02:03:48.984Z,21.06
2022-08-07T02:09:43.580Z,21.00
2022-08-07T02:15:16.425Z,20.94
2022-08-07T02:20:48.794Z,20.89
2022-08-07T02:26:32.930Z,20.85
2022-08-07T02:32:07.257Z,20.61
2022-08-07T02:37:44.178Z,20.39
2022-08-07T02:43:14.281Z,20.26
2022-08-07T02:48:54.667Z,20.29
2022-08-07T02:54:27.810Z,20.38
2022-08-07T03:00:01.394Z,20.53
2022-08-07T03:05:38.839Z,20.80
2022-08-07T03:11:11.385Z,20.81
2022-08-07T03:16:44.221Z,20.80
2022-08-07T03:22:19.056Z,20.75
2022-08-07T03:27:59.318Z,20.75
2022-08-07T03:33:40.223Z,20.92
2022-08-07T03:39:15.215Z,21.21
2022-08-07T03:44:47.342Z,21.39
2022-08-07T03:50:25.120Z,21.51
2022-08-07T03:56:04.373Z,21.79
2022-08-07T04:01:45.206Z,22.08
2022-08-07T04:07:17.721Z,22.23
2022-08-07T04:12:54.199Z,22.37
2022-08-07T04:18:56.633Z,22.42
2022-08-07T04:24:34.161Z,22.38
2022-08-07T04:30:21.719Z,22.59
2022-08-07T04:36:06.441Z,22.67
2022-08-07T04:41:36.838Z,22.81
2022-08-07T04:47:57.135Z,22.98
2022-08-07T04:53:09.233Z,23.11
2022-08-07T05:00:07.922Z,23.26
2022-08-07T05:04:54.782Z,23.31
2022-08-07T05:10:35.216Z,23.43
2022-08-07T05:16:08.511Z,23.63
2022-08-07T05:22:00.691Z,23.73
2022-08-07T05:28:01.954Z,23.91
2022-08-07T05:33:26.065Z,24.03
2022-08-07T05:39:08.648Z,24.16
2022-08-07T05:45:04.400Z,24.24
2022-08-07T05:50:39.356Z,24.38
2022-08-07T05:56:16.516Z,24.48
2022-08-07T06:01:51.582Z,24.67
2022-08-07T06:07:22.729Z,24.79
2022-08-07T06:12:54.902Z,24.98
2022-08-07T06:18:24.401Z,25.07
2022-08-07T06:24:52.437Z,25.32
2022-08-07T06:29:48.961Z,25.62
2022-08-07T06:35:19.845Z,25.98
2022-08-07T06:40:54.466Z,26.60
2022-08-07T06:46:35.283Z,28.28
2022-08-07T06:52:10.354Z,30.59
2022-08-07T06:57:49.928Z,33.27
2022-08-07T07:03:49.049Z,35.22
2022-08-07T07:09:24.632Z,36.35
2022-08-07T07:15:08.591Z,37.48
2022-08-07T07:20:57.833Z,37.89
2022-08-07T07:26:36.614Z,37.69
2022-08-07T07:32:12.202Z,37.61
2022-08-07T07:37:49.949Z,38.10
2022-08-07T07:43:47.678Z,38.28
2022-08-07T07:50:33.220Z,38.07
2022-08-07T07:55:13.167Z,38.32
2022-08-07T08:00:43.808Z,38.84
2022-08-07T08:06:19.853Z,38.89
2022-08-07T08:12:01.557Z,39.40
2022-08-07T08:17:57.249Z,39.89
2022-08-07T08:23:46.939Z,39.96
2022-08-07T08:29:18.755Z,40.29
2022-08-07T08:34:51.547Z,40.49
2022-08-07T08:40:28.673Z,40.57
2022-08-07T08:46:07.571Z,40.43
2022-08-07T08:51:49.862Z,40.59
2022-08-07T08:57:39.256Z,40.80
2022-08-07T09:03:20.322Z,40.99
2022-08-07T09:08:57.977Z,40.58
2022-08-07T09:14:35.329Z,40.20
2022-08-07T09:20:35.466Z,40.28
2022-08-07T09:26:20.913Z,40.55
2022-08-07T09:32:00.621Z,40.41
2022-08-07T09:37:53.561Z,39.92
2022-08-07T09:43:40.031Z,39.68
2022-08-07T09:50:02.234Z,39.21
2022-08-07T09:56:03.106Z,38.92
2022-08-07T10:01:54.391Z,38.58
2022-08-07T10:07:52.619Z,38.50
2022-08-07T10:14:00.941Z,38.67
2022-08-07T10:19:45.425Z,38.77
2022-08-07T10:25:32.853Z,38.80
2022-08-07T10:31:38.476Z,39.16
2022-08-07T10:38:00.640Z,38.36
2022-08-07T10:43:34.372Z,38.37
2022-08-07T10:49:14.547Z,37.86
2022-08-07T10:54:53.529Z,38.11
2022-08-07T11:00:39.423Z,38.06
2022-08-07T11:06:23.002Z,37.82
2022-08-07T11:12:03.405Z,37.94
2022-08-07T11:17:45.768Z,37.52
2022-08-07T11:23:30.552Z,37.17
2022-08-07T11:29:13.334Z,36.83
2022-08-07T11:35:00.838Z,36.80
2022-08-07T11:40:45.126Z,36.54
2022-08-07T11:46:36.761Z,36.67
2022-08-07T11:52:29.400Z,36.76
2022-08-07T11:58:16.653Z,36.68
2022-08-07T12:04:10.340Z,36.64
2022-08-07T12:09:49.374Z,36.54
2022-08-07T12:15:46.335Z,36.74
2022-08-07T12:21:55.162Z,37.21
2022-08-07T12:27:16.811Z,37.68
2022-08-07T12:32:57.343Z,37.93
2022-08-07T12:38:36.980Z,38.36
2022-08-07T12:44:13.253Z,38.71
2022-08-07T12:50:00.240Z,38.89
2022-08-07T12:55:41.328Z,39.03
2022-08-07T13:08:12.712Z,38.98
2022-08-07T13:13:57.653Z,39.13
2022-08-07T13:19:45.921Z,39.27
2022-08-07T13:25:30.618Z,39.56
2022-08-07T13:31:06.426Z,39.23
2022-08-07T13:36:50.217Z,39.34
2022-08-07T13:42:25.503Z,39.34
2022-08-07T13:48:07.809Z,39.41
2022-08-07T13:53:59.290Z,38.60
2022-08-07T13:59:33.914Z,37.83
2022-08-07T14:05:05.567Z,37.14
2022-08-07T14:10:42.306Z,36.94
2022-08-07T14:16:16.889Z,36.97
2022-08-07T14:22:02.283Z,37.17
2022-08-07T14:28:12.357Z,37.03
2022-08-07T14:33:28.303Z,36.91
2022-08-07T14:40:16.274Z,36.41
2022-08-07T14:45:21.244Z,36.50
2022-08-07T14:50:56.351Z,36.54
2022-08-07T14:56:29.986Z,36.22
2022-08-07T15:02:33.994Z,36.13
2022-08-07T15:08:08.867Z,36.02
2022-08-07T15:13:49.829Z,35.96
2022-08-07T15:19:21.505Z,35.79
2022-08-07T15:31:07.839Z,35.77
2022-08-07T15:37:03.771Z,35.88
2022-08-07T15:42:52.142Z,35.83
2022-08-07T15:48:26.084Z,35.81
2022-08-07T15:54:01.828Z,35.69
2022-08-07T15:59:39.671Z,35.45
2022-08-07T16:05:17.968Z,34.96
2022-08-07T16:10:53.243Z,34.54
2022-08-07T16:16:48.269Z,34.16
2022-08-07T16:22:55.382Z,33.73
2022-08-07T16:29:18.302Z,33.37
2022-08-07T16:34:39.583Z,32.98
2022-08-07T16:40:28.774Z,32.69
2022-08-07T16:52:49.324Z,32.03
2022-08-07T16:58:21.260Z,31.79
2022-08-07T17:04:04.682Z,31.52
2022-08-07T17:10:06.184Z,31.32
2022-08-07T17:15:44.531Z,31.13
2022-08-07T17:21:23.627Z,30.94
2022-08-07T17:27:01.532Z,30.76
2022-08-07T17:32:36.499Z,30.61
2022-08-07T17:38:33.393Z,30.40
2022-08-07T17:44:15.588Z,30.23
2022-08-07T17:50:03.241Z,29.99
2022-08-07T17:55:55.661Z,29.85
2022-08-07T18:01:38.103Z,29.67
2022-08-07T18:07:24.696Z,29.56
2022-08-07T18:13:15.381Z,29.45
2022-08-07T18:21:04.096Z,29.30
2022-08-07T18:24:44.343Z,29.21
2022-08-07T18:30:31.238Z,29.14
2022-08-07T18:36:15.969Z,28.90
2022-08-07T18:41:56.662Z,28.78
2022-08-07T18:47:45.327Z,28.61
2022-08-07T18:53:36.730Z,28.40
2022-08-07T18:59:47.040Z,27.94
2022-08-07T19:06:02.109Z,27.76
2022-08-07T19:11:39.329Z,27.69
2022-08-07T19:18:04.019Z,27.07
2022-08-07T19:23:58.268Z,27.08
2022-08-07T19:30:55.555Z,27.11
2022-08-07T19:35:22.503Z,26.94
2022-08-07T19:40:53.316Z,26.65
2022-08-07T19:46:30.433Z,26.46
2022-08-07T19:52:01.376Z,26.50
2022-08-07T19:58:00.063Z,26.18
2022-08-07T20:03:35.134Z,26.27
2022-08-07T20:09:07.490Z,26.24
2022-08-07T20:15:00.148Z,26.19
2022-08-07T20:20:31.007Z,26.25
2022-08-07T20:26:10.061Z,26.22
2022-08-07T20:31:46.543Z,26.29
2022-08-07T20:37:24.342Z,26.27
2022-08-07T20:42:57.953Z,26.23
2022-08-07T20:48:30.855Z,26.19
2022-08-07T20:54:08.711Z,26.20
2022-08-07T21:00:07.107Z,26.07
2022-08-07T21:05:51.442Z,25.89
2022-08-07T21:11:46.124Z,25.80
2022-08-07T21:18:06.624Z,25.80
2022-08-07T21:23:26.318Z,25.75
2022-08-07T21:29:01.716Z,25.76
2022-08-07T21:34:46.088Z,25.74
2022-08-07T21:40:28.848Z,25.65
2022-08-07T21:46:25.333Z,25.50
2022-08-07T21:52:09.061Z,25.36
2022-08-07T21:57:52.860Z,25.25
2022-08-07T22:03:31.080Z,25.14
2022-08-07T22:09:07.046Z,24.93
2022-08-07T22:14:59.296Z,24.72
2022-08-07T22:20:43.019Z,24.65
2022-08-07T22:26:20.471Z,24.45
2022-08-07T22:32:06.314Z,24.34
2022-08-07T22:38:04.764Z,24.26
2022-08-07T22:43:38.714Z,24.19
2022-08-07T22:49:33.890Z,24.14
2022-08-07T22:55:44.462Z,24.03
2022-08-07T23:01:27.177Z,23.93
2022-08-07T23:07:39.998Z,23.90
2022-08-07T23:13:48.474Z,23.83
2022-08-07T23:19:59.871Z,23.71
2022-08-07T23:25:48.963Z,23.58
2022-08-07T23:32:49.386Z,23.51
2022-08-07T23:38:01.621Z,23.38
2022-08-07T23:44:07.004Z,22.94
2022-08-07T23:49:52.788Z,22.86
2022-08-07T23:55:51.970Z,22.87
